sensor_id;sensor_type;location;lat;lon;timestamp;pressure;altitude;pressure_sealevel;temperature;humidity
64354;BME280;50681;53.334;-6.536;2023-12-14T00:01:44;100832.63;;;11.49;100.00
64354;BME280;50681;53.334;-6.536;2023-12-14T00:04:11;100825.16;;;11.41;100.00
64354;BME280;50681;53.334;-6.536;2023-12-14T00:06:36;100827.81;;;11.46;100.00
64354;BME280;50681;53.334;-6.536;2023-12-14T00:09:02;100821.19;;;11.57;100.00
64354;BME280;50681;53.334;-6.536;2023-12-14T00:11:27;100822.47;;;11.41;100.00
64354;BME280;50681;53.334;-6.536;2023-12-14T00:13:53;100819.81;;;11.36;100.00
64354;BME280;50681;53.334;-6.536;2023-12-14T00:16:18;100825.56;;;11.53;100.00
64354;BME280;50681;53.334;-6.536;2023-12-14T00:18:44;100824.44;;;11.06;100.00
64354;BME280;50681;53.334;-6.536;2023-12-14T00:21:12;100826.44;;;11.49;100.00
64354;BME280;50681;53.334;-6.536;2023-12-14T00:23:37;100819.06;;;11.54;100.00
64354;BME280;50681;53.334;-6.536;2023-12-14T00:26:03;100812.78;;;11.35;100.00
64354;BME280;50681;53.334;-6.536;2023-12-14T00:28:28;100814.16;;;11.56;100.00
64354;BME280;50681;53.334;-6.536;2023-12-14T00:30:54;100822.06;;;11.53;100.00
64354;BME280;50681;53.334;-6.536;2023-12-14T00:33:19;100815.78;;;11.57;100.00
64354;BME280;50681;53.334;-6.536;2023-12-14T00:35:45;100812.53;;;11.36;100.00
64354;BME280;50681;53.334;-6.536;2023-12-14T00:38:10;100813.63;;;11.35;100.00
64354;BME280;50681;53.334;-6.536;2023-12-14T00:40:36;100814.75;;;11.29;100.00
64354;BME280;50681;53.334;-6.536;2023-12-14T00:43:01;100815.03;;;11.27;100.00
64354;BME280;50681;53.334;-6.536;2023-12-14T00:45:26;100813.31;;;11.37;100.00
64354;BME280;50681;53.334;-6.536;2023-12-14T00:47:52;100809.47;;;11.18;100.00
64354;BME280;50681;53.334;-6.536;2023-12-14T00:50:17;100802.03;;;11.29;100.00
64354;BME280;50681;53.334;-6.536;2023-12-14T00:52:43;100807.28;;;11.21;100.00
64354;BME280;50681;53.334;-6.536;2023-12-14T00:55:08;100813.25;;;11.42;100.00
64354;BME280;50681;53.334;-6.536;2023-12-14T00:57:33;100823.16;;;11.27;100.00
64354;BME280;50681;53.334;-6.536;2023-12-14T00:59:59;100820.56;;;11.41;100.00
64354;BME280;50681;53.334;-6.536;2023-12-14T01:02:24;100824.06;;;11.42;100.00
64354;BME280;50681;53.334;-6.536;2023-12-14T01:04:49;100817.28;;;11.20;100.00
64354;BME280;50681;53.334;-6.536;2023-12-14T01:07:15;100816.69;;;11.23;100.00
64354;BME280;50681;53.334;-6.536;2023-12-14T01:09:40;100818.31;;;11.24;100.00
64354;BME280;50681;53.334;-6.536;2023-12-14T01:12:06;100806.28;;;11.36;100.00
64354;BME280;50681;53.334;-6.536;2023-12-14T01:14:31;100807.75;;;11.28;100.00
64354;BME280;50681;53.334;-6.536;2023-12-14T01:16:57;100799.59;;;11.33;100.00
64354;BME280;50681;53.334;-6.536;2023-12-14T01:19:22;100800.03;;;11.40;100.00
64354;BME280;50681;53.334;-6.536;2023-12-14T01:21:48;100805.72;;;11.14;100.00
64354;BME280;50681;53.334;-6.536;2023-12-14T01:24:13;100814.63;;;11.15;100.00
64354;BME280;50681;53.334;-6.536;2023-12-14T01:26:39;100814.41;;;11.11;100.00
64354;BME280;50681;53.334;-6.536;2023-12-14T01:29:05;100818.88;;;11.21;100.00
64354;BME280;50681;53.334;-6.536;2023-12-14T01:31:30;100813.25;;;11.17;100.00
64354;BME280;50681;53.334;-6.536;2023-12-14T01:33:55;100826.22;;;11.21;100.00
64354;BME280;50681;53.334;-6.536;2023-12-14T01:36:21;100812.44;;;11.17;100.00
64354;BME280;50681;53.334;-6.536;2023-12-14T01:38:47;100800.16;;;11.30;100.00
64354;BME280;50681;53.334;-6.536;2023-12-14T01:41:13;100813.25;;;11.42;100.00
64354;BME280;50681;53.334;-6.536;2023-12-14T01:43:38;100800.44;;;11.28;100.00
64354;BME280;50681;53.334;-6.536;2023-12-14T01:46:03;100817.53;;;11.24;100.00
64354;BME280;50681;53.334;-6.536;2023-12-14T01:48:29;100821.59;;;11.21;100.00
64354;BME280;50681;53.334;-6.536;2023-12-14T01:50:54;100821.13;;;11.14;100.00
64354;BME280;50681;53.334;-6.536;2023-12-14T01:53:21;100816.81;;;11.13;100.00
64354;BME280;50681;53.334;-6.536;2023-12-14T01:55:46;100800.31;;;11.14;100.00
64354;BME280;50681;53.334;-6.536;2023-12-14T01:58:12;100807.78;;;11.47;100.00
64354;BME280;50681;53.334;-6.536;2023-12-14T02:01:13;100809.66;;;11.71;100.00
64354;BME280;50681;53.334;-6.536;2023-12-14T02:03:46;100823.16;;;11.52;100.00
64354;BME280;50681;53.334;-6.536;2023-12-14T02:06:15;100827.94;;;11.60;100.00
64354;BME280;50681;53.334;-6.536;2023-12-14T02:08:40;100811.88;;;11.44;100.00
64354;BME280;50681;53.334;-6.536;2023-12-14T02:11:06;100833.41;;;11.55;100.00
64354;BME280;50681;53.334;-6.536;2023-12-14T02:13:32;100827.94;;;11.60;100.00
64354;BME280;50681;53.334;-6.536;2023-12-14T02:15:57;100820.97;;;11.54;100.00
64354;BME280;50681;53.334;-6.536;2023-12-14T02:18:23;100829.13;;;11.73;100.00
64354;BME280;50681;53.334;-6.536;2023-12-14T02:20:48;100829.75;;;11.65;100.00
64354;BME280;50681;53.334;-6.536;2023-12-14T02:23:14;100829.94;;;11.49;100.00
64354;BME280;50681;53.334;-6.536;2023-12-14T02:25:39;100836.31;;;11.58;100.00
64354;BME280;50681;53.334;-6.536;2023-12-14T02:28:04;100846.44;;;11.72;100.00
64354;BME280;50681;53.334;-6.536;2023-12-14T02:30:30;100839.94;;;11.73;100.00
64354;BME280;50681;53.334;-6.536;2023-12-14T02:32:55;100845.84;;;11.75;100.00
64354;BME280;50681;53.334;-6.536;2023-12-14T02:35:21;100837.81;;;11.70;100.00
64354;BME280;50681;53.334;-6.536;2023-12-14T02:37:47;100843.34;;;11.59;100.00
64354;BME280;50681;53.334;-6.536;2023-12-14T02:40:13;100846.25;;;11.87;100.00
64354;BME280;50681;53.334;-6.536;2023-12-14T02:42:38;100849.47;;;11.89;100.00
64354;BME280;50681;53.334;-6.536;2023-12-14T02:45:04;100843.13;;;11.99;100.00
64354;BME280;50681;53.334;-6.536;2023-12-14T02:47:30;100844.94;;;11.60;100.00
64354;BME280;50681;53.334;-6.536;2023-12-14T02:49:55;100839.28;;;11.81;100.00
64354;BME280;50681;53.334;-6.536;2023-12-14T02:52:22;100838.25;;;11.77;100.00
64354;BME280;50681;53.334;-6.536;2023-12-14T02:54:47;100838.66;;;11.89;100.00
64354;BME280;50681;53.334;-6.536;2023-12-14T02:57:13;100845.38;;;11.92;100.00
64354;BME280;50681;53.334;-6.536;2023-12-14T02:59:39;100838.72;;;11.84;100.00
64354;BME280;50681;53.334;-6.536;2023-12-14T03:02:04;100836.06;;;11.79;100.00
64354;BME280;50681;53.334;-6.536;2023-12-14T03:04:31;100822.47;;;12.09;100.00
64354;BME280;50681;53.334;-6.536;2023-12-14T03:06:56;100836.72;;;12.14;100.00
64354;BME280;50681;53.334;-6.536;2023-12-14T03:09:22;100830.97;;;11.97;100.00
64354;BME280;50681;53.334;-6.536;2023-12-14T03:11:48;100823.06;;;12.05;100.00
64354;BME280;50681;53.334;-6.536;2023-12-14T03:14:13;100824.59;;;11.87;100.00
64354;BME280;50681;53.334;-6.536;2023-12-14T03:16:39;100829.38;;;11.96;100.00
64354;BME280;50681;53.334;-6.536;2023-12-14T03:19:04;100828.34;;;11.91;100.00
64354;BME280;50681;53.334;-6.536;2023-12-14T03:21:30;100834.19;;;11.99;100.00
64354;BME280;50681;53.334;-6.536;2023-12-14T03:23:56;100826.28;;;11.83;100.00
64354;BME280;50681;53.334;-6.536;2023-12-14T03:26:21;100822.59;;;11.74;100.00
64354;BME280;50681;53.334;-6.536;2023-12-14T03:28:47;100835.28;;;11.98;100.00
64354;BME280;50681;53.334;-6.536;2023-12-14T03:31:12;100822.78;;;11.83;100.00
64354;BME280;50681;53.334;-6.536;2023-12-14T03:33:38;100813.31;;;12.04;100.00
64354;BME280;50681;53.334;-6.536;2023-12-14T03:36:04;100805.47;;;12.03;100.00
64354;BME280;50681;53.334;-6.536;2023-12-14T03:38:30;100810.81;;;12.08;100.00
64354;BME280;50681;53.334;-6.536;2023-12-14T03:40:55;100805.47;;;12.03;100.00
64354;BME280;50681;53.334;-6.536;2023-12-14T03:43:21;100824.78;;;12.15;100.00
64354;BME280;50681;53.334;-6.536;2023-12-14T03:45:46;100801.31;;;12.11;100.00
64354;BME280;50681;53.334;-6.536;2023-12-14T03:48:11;100824.16;;;11.80;100.00
64354;BME280;50681;53.334;-6.536;2023-12-14T03:50:37;100815.25;;;11.99;100.00
64354;BME280;50681;53.334;-6.536;2023-12-14T03:53:02;100817.13;;;12.03;100.00
64354;BME280;50681;53.334;-6.536;2023-12-14T03:55:28;100810.03;;;12.08;100.00
64354;BME280;50681;53.334;-6.536;2023-12-14T03:57:53;100813.53;;;12.27;100.00
64354;BME280;50681;53.334;-6.536;2023-12-14T04:00:20;100814.41;;;12.23;100.00
64354;BME280;50681;53.334;-6.536;2023-12-14T04:02:45;100819.88;;;12.17;100.00
64354;BME280;50681;53.334;-6.536;2023-12-14T04:05:11;100823.19;;;12.14;100.00
64354;BME280;50681;53.334;-6.536;2023-12-14T04:07:37;100822.59;;;12.17;100.00
64354;BME280;50681;53.334;-6.536;2023-12-14T04:10:06;100817.63;;;12.25;100.00
64354;BME280;50681;53.334;-6.536;2023-12-14T04:12:32;100816.31;;;12.03;100.00
64354;BME280;50681;53.334;-6.536;2023-12-14T04:14:58;100824.16;;;11.80;100.00
64354;BME280;50681;53.334;-6.536;2023-12-14T04:17:23;100815.38;;;12.13;100.00
64354;BME280;50681;53.334;-6.536;2023-12-14T04:19:49;100822.53;;;11.79;100.00
64354;BME280;50681;53.334;-6.536;2023-12-14T04:22:15;100815.00;;;11.76;100.00
64354;BME280;50681;53.334;-6.536;2023-12-14T04:24:40;100813.31;;;12.04;100.00
64354;BME280;50681;53.334;-6.536;2023-12-14T04:27:05;100810.16;;;12.16;100.00
64354;BME280;50681;53.334;-6.536;2023-12-14T04:29:31;100806.78;;;12.25;100.00
64354;BME280;50681;53.334;-6.536;2023-12-14T04:31:56;100810.50;;;11.90;100.00
64354;BME280;50681;53.334;-6.536;2023-12-14T04:34:22;100824.44;;;12.03;100.00
64354;BME280;50681;53.334;-6.536;2023-12-14T04:36:47;100824.94;;;12.05;100.00
64354;BME280;50681;53.334;-6.536;2023-12-14T04:39:13;100839.56;;;12.04;100.00
64354;BME280;50681;53.334;-6.536;2023-12-14T04:41:38;100834.16;;;12.04;100.00
64354;BME280;50681;53.334;-6.536;2023-12-14T04:44:04;100836.34;;;12.02;100.00
64354;BME280;50681;53.334;-6.536;2023-12-14T04:46:29;100845.06;;;12.18;100.00
64354;BME280;50681;53.334;-6.536;2023-12-14T04:48:55;100851.50;;;12.41;100.00
64354;BME280;50681;53.334;-6.536;2023-12-14T04:51:20;100852.16;;;12.33;100.00
64354;BME280;50681;53.334;-6.536;2023-12-14T04:53:46;100842.56;;;12.41;100.00
64354;BME280;50681;53.334;-6.536;2023-12-14T04:56:12;100844.63;;;12.30;100.00
64354;BME280;50681;53.334;-6.536;2023-12-14T04:58:41;100848.84;;;12.36;100.00
64354;BME280;50681;53.334;-6.536;2023-12-14T05:01:07;100853.84;;;12.29;100.00
64354;BME280;50681;53.334;-6.536;2023-12-14T05:03:36;100846.81;;;12.28;100.00
64354;BME280;50681;53.334;-6.536;2023-12-14T05:06:01;100855.59;;;12.19;100.00
64354;BME280;50681;53.334;-6.536;2023-12-14T05:08:27;100861.53;;;12.22;100.00
64354;BME280;50681;53.334;-6.536;2023-12-14T05:10:52;100863.50;;;12.35;100.00
64354;BME280;50681;53.334;-6.536;2023-12-14T05:13:18;100867.81;;;12.36;100.00
64354;BME280;50681;53.334;-6.536;2023-12-14T05:15:43;100886.06;;;12.30;100.00
64354;BME280;50681;53.334;-6.536;2023-12-14T05:18:09;100888.66;;;12.55;100.00
64354;BME280;50681;53.334;-6.536;2023-12-14T05:20:35;100885.63;;;12.75;100.00
64354;BME280;50681;53.334;-6.536;2023-12-14T05:23:01;100886.63;;;12.66;100.00
64354;BME280;50681;53.334;-6.536;2023-12-14T05:25:27;100885.63;;;12.75;100.00
64354;BME280;50681;53.334;-6.536;2023-12-14T05:27:52;100895.09;;;12.78;100.00
64354;BME280;50681;53.334;-6.536;2023-12-14T05:30:17;100893.13;;;12.64;100.00
64354;BME280;50681;53.334;-6.536;2023-12-14T05:32:43;100899.66;;;12.63;100.00
64354;BME280;50681;53.334;-6.536;2023-12-14T05:35:09;100903.63;;;12.52;100.00
64354;BME280;50681;53.334;-6.536;2023-12-14T05:37:35;100896.00;;;12.54;100.00
64354;BME280;50681;53.334;-6.536;2023-12-14T05:40:01;100896.78;;;12.55;100.00
64354;BME280;50681;53.334;-6.536;2023-12-14T05:42:27;100903.97;;;12.45;100.00
64354;BME280;50681;53.334;-6.536;2023-12-14T05:44:53;100910.50;;;12.63;100.00
64354;BME280;50681;53.334;-6.536;2023-12-14T05:47:19;100909.09;;;12.47;100.00
64354;BME280;50681;53.334;-6.536;2023-12-14T05:49:44;100926.38;;;12.51;100.00
64354;BME280;50681;53.334;-6.536;2023-12-14T05:52:10;100928.63;;;12.25;100.00
64354;BME280;50681;53.334;-6.536;2023-12-14T05:54:37;100925.25;;;12.33;100.00
64354;BME280;50681;53.334;-6.536;2023-12-14T05:57:02;100937.69;;;12.34;100.00
64354;BME280;50681;53.334;-6.536;2023-12-14T05:59:28;100946.06;;;12.38;100.00
64354;BME280;50681;53.334;-6.536;2023-12-14T06:02:00;100935.44;;;12.41;100.00
64354;BME280;50681;53.334;-6.536;2023-12-14T06:04:27;100947.50;;;12.30;100.00
64354;BME280;50681;53.334;-6.536;2023-12-14T06:06:52;100951.03;;;12.06;100.00
64354;BME280;50681;53.334;-6.536;2023-12-14T06:09:18;100959.88;;;12.17;100.00
64354;BME280;50681;53.334;-6.536;2023-12-14T06:11:47;100965.28;;;11.87;100.00
64354;BME280;50681;53.334;-6.536;2023-12-14T06:14:16;100964.88;;;12.04;100.00
64354;BME280;50681;53.334;-6.536;2023-12-14T06:16:44;100965.53;;;11.91;100.00
64354;BME280;50681;53.334;-6.536;2023-12-14T06:19:10;100971.16;;;11.95;100.00
64354;BME280;50681;53.334;-6.536;2023-12-14T06:21:40;100977.69;;;11.94;100.00
64354;BME280;50681;53.334;-6.536;2023-12-14T06:24:06;100972.47;;;11.73;100.00
64354;BME280;50681;53.334;-6.536;2023-12-14T06:26:31;100968.38;;;11.51;100.00
64354;BME280;50681;53.334;-6.536;2023-12-14T06:28:57;100987.78;;;11.58;100.00
64354;BME280;50681;53.334;-6.536;2023-12-14T06:31:22;100991.94;;;11.75;100.00
64354;BME280;50681;53.334;-6.536;2023-12-14T06:33:48;100994.03;;;11.83;100.00
64354;BME280;50681;53.334;-6.536;2023-12-14T06:36:16;100994.03;;;11.83;100.00
64354;BME280;50681;53.334;-6.536;2023-12-14T06:38:45;100990.16;;;11.65;100.00
64354;BME280;50681;53.334;-6.536;2023-12-14T06:41:28;100994.19;;;11.68;100.00
64354;BME280;50681;53.334;-6.536;2023-12-14T06:43:54;101003.06;;;11.73;100.00
64354;BME280;50681;53.334;-6.536;2023-12-14T06:46:21;101001.19;;;11.69;100.00
64354;BME280;50681;53.334;-6.536;2023-12-14T06:48:47;101004.78;;;11.64;100.00
64354;BME280;50681;53.334;-6.536;2023-12-14T06:51:13;101001.88;;;11.55;100.00
64354;BME280;50681;53.334;-6.536;2023-12-14T06:53:42;101015.41;;;11.85;100.00
64354;BME280;50681;53.334;-6.536;2023-12-14T06:56:09;101014.25;;;11.61;100.00
64354;BME280;50681;53.334;-6.536;2023-12-14T06:58:45;101025.84;;;11.67;100.00
64354;BME280;50681;53.334;-6.536;2023-12-14T07:01:14;101038.38;;;11.58;100.00
64354;BME280;50681;53.334;-6.536;2023-12-14T07:03:40;101036.91;;;11.36;100.00
64354;BME280;50681;53.334;-6.536;2023-12-14T07:06:14;101049.75;;;11.55;100.00
64354;BME280;50681;53.334;-6.536;2023-12-14T07:08:40;101047.72;;;11.36;100.00
64354;BME280;50681;53.334;-6.536;2023-12-14T07:11:10;101052.88;;;11.32;100.00
64354;BME280;50681;53.334;-6.536;2023-12-14T07:13:35;101061.63;;;11.19;100.00
64354;BME280;50681;53.334;-6.536;2023-12-14T07:16:09;101065.72;;;11.51;100.00
64354;BME280;50681;53.334;-6.536;2023-12-14T07:18:44;101080.44;;;11.35;100.00
64354;BME280;50681;53.334;-6.536;2023-12-14T07:21:12;101081.44;;;11.09;100.00
64354;BME280;50681;53.334;-6.536;2023-12-14T07:23:37;101087.34;;;11.16;100.00
64354;BME280;50681;53.334;-6.536;2023-12-14T07:26:03;101091.84;;;11.26;100.00
64354;BME280;50681;53.334;-6.536;2023-12-14T07:28:29;101097.53;;;11.30;100.00
64354;BME280;50681;53.334;-6.536;2023-12-14T07:30:54;101104.59;;;11.21;100.00
64354;BME280;50681;53.334;-6.536;2023-12-14T07:33:20;101093.84;;;11.10;100.00
64354;BME280;50681;53.334;-6.536;2023-12-14T07:35:46;101104.38;;;11.12;100.00
64354;BME280;50681;53.334;-6.536;2023-12-14T07:38:12;101105.28;;;10.97;100.00
64354;BME280;50681;53.334;-6.536;2023-12-14T07:40:38;101093.50;;;10.72;100.00
64354;BME280;50681;53.334;-6.536;2023-12-14T07:43:04;101121.75;;;10.95;100.00
64354;BME280;50681;53.334;-6.536;2023-12-14T07:45:30;101122.47;;;10.56;100.00
64354;BME280;50681;53.334;-6.536;2023-12-14T07:47:55;101120.53;;;10.62;100.00
64354;BME280;50681;53.334;-6.536;2023-12-14T07:50:21;101124.53;;;10.74;100.00
64354;BME280;50681;53.334;-6.536;2023-12-14T07:52:46;101130.53;;;10.61;100.00
64354;BME280;50681;53.334;-6.536;2023-12-14T07:55:12;101125.34;;;10.75;100.00
64354;BME280;50681;53.334;-6.536;2023-12-14T07:57:44;101133.47;;;10.75;100.00
64354;BME280;50681;53.334;-6.536;2023-12-14T08:00:10;101137.50;;;10.78;100.00
64354;BME280;50681;53.334;-6.536;2023-12-14T08:02:36;101141.22;;;10.92;100.00
64354;BME280;50681;53.334;-6.536;2023-12-14T08:05:01;101155.81;;;10.91;100.00
64354;BME280;50681;53.334;-6.536;2023-12-14T08:07:27;101163.38;;;10.89;100.00
64354;BME280;50681;53.334;-6.536;2023-12-14T08:09:55;101166.56;;;11.07;100.00
64354;BME280;50681;53.334;-6.536;2023-12-14T08:12:22;101172.22;;;11.10;100.00
64354;BME280;50681;53.334;-6.536;2023-12-14T08:14:47;101166.56;;;11.07;100.00
64354;BME280;50681;53.334;-6.536;2023-12-14T08:17:13;101176.28;;;11.08;100.00
64354;BME280;50681;53.334;-6.536;2023-12-14T08:19:39;101174.75;;;10.86;100.00
64354;BME280;50681;53.334;-6.536;2023-12-14T08:22:04;101176.84;;;10.99;100.00
64354;BME280;50681;53.334;-6.536;2023-12-14T08:24:29;101174.63;;;11.17;100.00
64354;BME280;50681;53.334;-6.536;2023-12-14T08:26:55;101181.03;;;11.31;100.00
64354;BME280;50681;53.334;-6.536;2023-12-14T08:29:20;101192.59;;;11.47;100.00
64354;BME280;50681;53.334;-6.536;2023-12-14T08:31:47;101192.63;;;11.42;100.00
64354;BME280;50681;53.334;-6.536;2023-12-14T08:34:13;101210.13;;;11.50;100.00
64354;BME280;50681;53.334;-6.536;2023-12-14T08:36:38;101214.34;;;11.22;100.00
64354;BME280;50681;53.334;-6.536;2023-12-14T08:39:04;101224.66;;;11.65;100.00
64354;BME280;50681;53.334;-6.536;2023-12-14T08:41:30;101234.44;;;11.55;100.00
64354;BME280;50681;53.334;-6.536;2023-12-14T08:43:56;101245.88;;;11.42;100.00
64354;BME280;50681;53.334;-6.536;2023-12-14T08:46:21;101242.59;;;11.50;100.00
64354;BME280;50681;53.334;-6.536;2023-12-14T08:48:47;101237.09;;;11.66;100.00
64354;BME280;50681;53.334;-6.536;2023-12-14T08:51:14;101241.84;;;11.84;100.00
64354;BME280;50681;53.334;-6.536;2023-12-14T08:53:39;101242.31;;;11.52;100.00
64354;BME280;50681;53.334;-6.536;2023-12-14T08:56:05;101243.69;;;11.44;100.00
64354;BME280;50681;53.334;-6.536;2023-12-14T08:58:31;101245.34;;;11.40;100.00
64354;BME280;50681;53.334;-6.536;2023-12-14T09:00:56;101251.09;;;11.78;100.00
64354;BME280;50681;53.334;-6.536;2023-12-14T09:03:21;101251.09;;;11.78;100.00
64354;BME280;50681;53.334;-6.536;2023-12-14T09:05:47;101258.09;;;11.84;100.00
64354;BME280;50681;53.334;-6.536;2023-12-14T09:08:13;101267.50;;;11.97;100.00
64354;BME280;50681;53.334;-6.536;2023-12-14T09:10:39;101274.78;;;12.02;100.00
64354;BME280;50681;53.334;-6.536;2023-12-14T09:13:07;101277.72;;;12.11;100.00
64354;BME280;50681;53.334;-6.536;2023-12-14T09:15:33;101284.25;;;12.04;100.00
64354;BME280;50681;53.334;-6.536;2023-12-14T09:17:59;101288.28;;;12.07;100.00
64354;BME280;50681;53.334;-6.536;2023-12-14T09:20:25;101283.72;;;11.97;100.00
64354;BME280;50681;53.334;-6.536;2023-12-14T09:22:52;101301.97;;;12.26;100.00
64354;BME280;50681;53.334;-6.536;2023-12-14T09:25:17;101292.38;;;11.99;100.00
64354;BME280;50681;53.334;-6.536;2023-12-14T09:27:43;101296.19;;;11.98;100.00
64354;BME280;50681;53.334;-6.536;2023-12-14T09:30:09;101307.03;;;11.93;100.00
64354;BME280;50681;53.334;-6.536;2023-12-14T09:32:35;101307.13;;;12.23;100.00
64354;BME280;50681;53.334;-6.536;2023-12-14T09:35:00;101320.72;;;12.17;100.00
64354;BME280;50681;53.334;-6.536;2023-12-14T09:37:26;101306.91;;;12.19;100.00
64354;BME280;50681;53.334;-6.536;2023-12-14T09:39:51;101313.53;;;12.37;100.00
64354;BME280;50681;53.334;-6.536;2023-12-14T09:42:18;101321.56;;;12.47;100.00
64354;BME280;50681;53.334;-6.536;2023-12-14T09:44:46;101319.44;;;12.44;100.00
64354;BME280;50681;53.334;-6.536;2023-12-14T09:47:13;101336.34;;;12.66;100.00
64354;BME280;50681;53.334;-6.536;2023-12-14T09:49:43;101334.97;;;12.68;100.00
64354;BME280;50681;53.334;-6.536;2023-12-14T09:52:10;101334.22;;;12.62;100.00
64354;BME280;50681;53.334;-6.536;2023-12-14T09:54:36;101341.03;;;12.55;100.00
64354;BME280;50681;53.334;-6.536;2023-12-14T09:57:01;101345.09;;;12.57;100.00
64354;BME280;50681;53.334;-6.536;2023-12-14T09:59:27;101336.50;;;12.45;100.00
64354;BME280;50681;53.334;-6.536;2023-12-14T10:01:52;101328.53;;;12.59;100.00
64354;BME280;50681;53.334;-6.536;2023-12-14T10:04:19;101323.31;;;12.68;100.00
64354;BME280;50681;53.334;-6.536;2023-12-14T10:06:47;101339.91;;;12.61;100.00
64354;BME280;50681;53.334;-6.536;2023-12-14T10:09:13;101329.63;;;12.58;100.00
64354;BME280;50681;53.334;-6.536;2023-12-14T10:11:41;101338.44;;;12.39;100.00
64354;BME280;50681;53.334;-6.536;2023-12-14T10:14:23;101351.63;;;12.51;100.00
64354;BME280;50681;53.334;-6.536;2023-12-14T10:16:52;101365.91;;;12.62;100.00
64354;BME280;50681;53.334;-6.536;2023-12-14T10:19:18;101369.28;;;12.43;100.00
64354;BME280;50681;53.334;-6.536;2023-12-14T10:21:48;101381.25;;;12.77;100.00
64354;BME280;50681;53.334;-6.536;2023-12-14T10:24:14;101383.88;;;12.47;100.00
64354;BME280;50681;53.334;-6.536;2023-12-14T10:26:40;101384.50;;;12.34;100.00
64354;BME280;50681;53.334;-6.536;2023-12-14T10:29:07;101384.34;;;12.20;100.00
64354;BME280;50681;53.334;-6.536;2023-12-14T10:31:36;101399.19;;;12.23;100.00
64354;BME280;50681;53.334;-6.536;2023-12-14T10:34:06;101399.91;;;12.44;100.00
64354;BME280;50681;53.334;-6.536;2023-12-14T10:36:32;101402.28;;;12.05;100.00
64354;BME280;50681;53.334;-6.536;2023-12-14T10:38:59;101405.28;;;11.83;100.00
64354;BME280;50681;53.334;-6.536;2023-12-14T10:41:25;101409.88;;;12.48;100.00
64354;BME280;50681;53.334;-6.536;2023-12-14T10:43:56;101405.78;;;12.56;100.00
64354;BME280;50681;53.334;-6.536;2023-12-14T10:46:23;101414.84;;;12.31;100.00
64354;BME280;50681;53.334;-6.536;2023-12-14T10:48:52;101420.19;;;12.46;100.00
64354;BME280;50681;53.334;-6.536;2023-12-14T10:51:18;101436.94;;;12.54;100.00
64354;BME280;50681;53.334;-6.536;2023-12-14T10:53:45;101429.34;;;12.56;100.00
64354;BME280;50681;53.334;-6.536;2023-12-14T10:59:25;101436.56;;;12.71;100.00
64354;BME280;50681;53.334;-6.536;2023-12-14T11:01:54;101436.28;;;12.72;100.00
64354;BME280;50681;53.334;-6.536;2023-12-14T11:04:22;101421.47;;;12.59;100.00
64354;BME280;50681;53.334;-6.536;2023-12-14T11:06:47;101414.44;;;12.58;100.00
64354;BME280;50681;53.334;-6.536;2023-12-14T11:09:17;101426.84;;;12.64;100.00
64354;BME280;50681;53.334;-6.536;2023-12-14T11:14:19;101431.34;;;12.79;100.00
64354;BME280;50681;53.334;-6.536;2023-12-14T11:16:45;101435.09;;;12.84;100.00
64354;BME280;50681;53.334;-6.536;2023-12-14T11:24:31;101435.66;;;12.81;100.00
64354;BME280;50681;53.334;-6.536;2023-12-14T11:26:56;101447.41;;;12.71;100.00
64354;BME280;50681;53.334;-6.536;2023-12-14T11:29:22;101441.53;;;12.93;100.00
64354;BME280;50681;53.334;-6.536;2023-12-14T11:31:48;101454.59;;;12.86;100.00
64354;BME280;50681;53.334;-6.536;2023-12-14T11:34:16;101449.38;;;13.00;100.00
64354;BME280;50681;53.334;-6.536;2023-12-14T11:36:42;101450.41;;;13.04;100.00
64354;BME280;50681;53.334;-6.536;2023-12-14T11:39:10;101451.22;;;13.04;100.00
64354;BME280;50681;53.334;-6.536;2023-12-14T11:41:36;101456.28;;;12.76;100.00
64354;BME280;50681;53.334;-6.536;2023-12-14T11:44:04;101453.06;;;12.74;100.00
64354;BME280;50681;53.334;-6.536;2023-12-14T11:46:29;101458.44;;;12.79;100.00
64354;BME280;50681;53.334;-6.536;2023-12-14T11:48:56;101454.69;;;13.10;100.00
64354;BME280;50681;53.334;-6.536;2023-12-14T11:51:22;101462.38;;;12.98;100.00
64354;BME280;50681;53.334;-6.536;2023-12-14T11:53:47;101462.97;;;12.94;100.00
64354;BME280;50681;53.334;-6.536;2023-12-14T11:56:19;101463.09;;;13.08;100.00
64354;BME280;50681;53.334;-6.536;2023-12-14T11:58:48;101458.59;;;13.28;100.00
64354;BME280;50681;53.334;-6.536;2023-12-14T12:01:14;101467.25;;;13.30;100.00
64354;BME280;50681;53.334;-6.536;2023-12-14T12:03:40;101457.56;;;13.24;100.00
64354;BME280;50681;53.334;-6.536;2023-12-14T12:06:06;101461.88;;;13.25;100.00
64354;BME280;50681;53.334;-6.536;2023-12-14T12:08:40;101464.13;;;13.47;100.00
64354;BME280;50681;53.334;-6.536;2023-12-14T12:11:07;101460.91;;;13.45;100.00
64354;BME280;50681;53.334;-6.536;2023-12-14T12:13:34;101457.03;;;13.51;100.00
64354;BME280;50681;53.334;-6.536;2023-12-14T12:16:00;101462.25;;;13.48;100.00
64354;BME280;50681;53.334;-6.536;2023-12-14T12:18:25;101465.38;;;13.60;100.00
64354;BME280;50681;53.334;-6.536;2023-12-14T12:20:51;101462.25;;;13.72;100.00
64354;BME280;50681;53.334;-6.536;2023-12-14T12:23:18;101458.97;;;13.51;100.00
64354;BME280;50681;53.334;-6.536;2023-12-14T12:25:44;101467.44;;;13.44;100.00
64354;BME280;50681;53.334;-6.536;2023-12-14T12:28:09;101465.75;;;13.78;100.00
64354;BME280;50681;53.334;-6.536;2023-12-14T12:30:35;101478.31;;;13.69;100.00
64354;BME280;50681;53.334;-6.536;2023-12-14T12:33:01;101465.34;;;13.65;100.00
64354;BME280;50681;53.334;-6.536;2023-12-14T12:35:26;101476.25;;;13.85;100.00
64354;BME280;50681;53.334;-6.536;2023-12-14T12:37:52;101480.88;;;13.84;100.00